sensor_id;sensor_type;location;lat;lon;timestamp;pressure;altitude;pressure_sealevel;temperature;humidity
53960;BME280;39866;48.638;-2.020;2022-10-16T00:01:30;100833.78;;;18.81;64.51
53960;BME280;39866;48.638;-2.020;2022-10-16T00:03:57;100838.16;;;18.84;64.42
53960;BME280;39866;48.638;-2.020;2022-10-16T00:06:24;100836.41;;;18.83;64.37
53960;BME280;39866;48.638;-2.020;2022-10-16T00:08:50;100841.03;;;18.81;64.70
53960;BME280;39866;48.638;-2.020;2022-10-16T00:11:27;100835.56;;;18.83;64.66
53960;BME280;39866;48.638;-2.020;2022-10-16T00:13:59;100831.19;;;18.80;64.77
53960;BME280;39866;48.638;-2.020;2022-10-16T00:16:26;100837.84;;;18.74;64.72
53960;BME280;39866;48.638;-2.020;2022-10-16T00:18:51;100838.44;;;18.79;64.88
53960;BME280;39866;48.638;-2.020;2022-10-16T00:21:20;100838.59;;;18.76;64.85
53960;BME280;39866;48.638;-2.020;2022-10-16T00:23:46;100838.03;;;18.71;64.69
53960;BME280;39866;48.638;-2.020;2022-10-16T00:26:14;100838.78;;;18.73;64.81
53960;BME280;39866;48.638;-2.020;2022-10-16T00:28:40;100838.19;;;18.68;65.10
53960;BME280;39866;48.638;-2.020;2022-10-16T00:31:10;100840.84;;;18.70;65.28
53960;BME280;39866;48.638;-2.020;2022-10-16T00:33:37;100852.97;;;18.61;65.62
53960;BME280;39866;48.638;-2.020;2022-10-16T00:36:04;100850.69;;;18.69;65.26
53960;BME280;39866;48.638;-2.020;2022-10-16T00:38:30;100841.69;;;18.70;65.41
53960;BME280;39866;48.638;-2.020;2022-10-16T00:40:56;100837.50;;;18.65;65.44
53960;BME280;39866;48.638;-2.020;2022-10-16T00:43:47;100853.38;;;18.69;65.30
53960;BME280;39866;48.638;-2.020;2022-10-16T00:51:43;100858.13;;;18.66;65.50
53960;BME280;39866;48.638;-2.020;2022-10-16T00:54:14;100864.13;;;18.71;65.82
53960;BME280;39866;48.638;-2.020;2022-10-16T00:56:41;100869.56;;;18.69;65.55
53960;BME280;39866;48.638;-2.020;2022-10-16T00:59:11;100869.69;;;18.68;65.52
53960;BME280;39866;48.638;-2.020;2022-10-16T01:01:39;100863.41;;;18.67;65.86
53960;BME280;39866;48.638;-2.020;2022-10-16T01:04:04;100854.47;;;18.67;65.79
53960;BME280;39866;48.638;-2.020;2022-10-16T01:06:58;100859.94;;;18.65;65.73
53960;BME280;39866;48.638;-2.020;2022-10-16T01:12:10;100851.78;;;18.67;65.99
53960;BME280;39866;48.638;-2.020;2022-10-16T01:17:22;100856.09;;;18.69;65.94
53960;BME280;39866;48.638;-2.020;2022-10-16T01:25:36;100857.88;;;18.70;66.19
53960;BME280;39866;48.638;-2.020;2022-10-16T01:28:06;100869.44;;;18.72;66.00
53960;BME280;39866;48.638;-2.020;2022-10-16T01:30:36;100857.78;;;18.72;66.24
53960;BME280;39866;48.638;-2.020;2022-10-16T01:33:09;100855.75;;;18.75;65.97
53960;BME280;39866;48.638;-2.020;2022-10-16T01:35:42;100859.44;;;18.74;66.02
53960;BME280;39866;48.638;-2.020;2022-10-16T01:38:40;100866.72;;;18.72;66.18
53960;BME280;39866;48.638;-2.020;2022-10-16T01:41:15;100874.97;;;18.69;66.20
53960;BME280;39866;48.638;-2.020;2022-10-16T01:43:48;100875.94;;;18.68;66.30
53960;BME280;39866;48.638;-2.020;2022-10-16T01:46:17;100874.38;;;18.64;66.22
53960;BME280;39866;48.638;-2.020;2022-10-16T01:48:44;100874.06;;;18.70;66.36
53960;BME280;39866;48.638;-2.020;2022-10-16T01:51:12;100876.91;;;18.67;66.29
53960;BME280;39866;48.638;-2.020;2022-10-16T01:53:40;100871.38;;;18.70;66.24
53960;BME280;39866;48.638;-2.020;2022-10-16T01:56:09;100865.00;;;18.71;66.29
53960;BME280;39866;48.638;-2.020;2022-10-16T01:58:43;100866.72;;;18.72;66.26
53960;BME280;39866;48.638;-2.020;2022-10-16T02:01:11;100867.94;;;18.67;66.42
53960;BME280;39866;48.638;-2.020;2022-10-16T02:03:41;100877.06;;;18.64;66.56
53960;BME280;39866;48.638;-2.020;2022-10-16T02:06:08;100871.38;;;18.70;66.58
53960;BME280;39866;48.638;-2.020;2022-10-16T02:08:34;100879.59;;;18.67;66.87
53960;BME280;39866;48.638;-2.020;2022-10-16T02:11:00;100880.34;;;18.69;66.86
53960;BME280;39866;48.638;-2.020;2022-10-16T02:13:35;100875.69;;;18.57;66.73
53960;BME280;39866;48.638;-2.020;2022-10-16T02:16:01;100884.31;;;18.64;66.80
53960;BME280;39866;48.638;-2.020;2022-10-16T02:18:26;100894.06;;;18.66;66.68
53960;BME280;39866;48.638;-2.020;2022-10-16T02:21:14;100898.66;;;18.64;67.09
53960;BME280;39866;48.638;-2.020;2022-10-16T02:26:11;100890.13;;;18.72;67.03
53960;BME280;39866;48.638;-2.020;2022-10-16T02:28:42;100892.56;;;18.76;66.94
53960;BME280;39866;48.638;-2.020;2022-10-16T02:31:11;100883.59;;;18.76;66.97
53960;BME280;39866;48.638;-2.020;2022-10-16T02:33:40;100876.53;;;18.73;66.63
53960;BME280;39866;48.638;-2.020;2022-10-16T02:36:07;100888.72;;;18.65;66.65
53960;BME280;39866;48.638;-2.020;2022-10-16T02:38:33;100875.19;;;18.66;66.86
53960;BME280;39866;48.638;-2.020;2022-10-16T02:40:59;100878.72;;;18.67;66.91
53960;BME280;39866;48.638;-2.020;2022-10-16T02:43:25;100884.84;;;18.70;66.99
53960;BME280;39866;48.638;-2.020;2022-10-16T02:45:51;100894.78;;;18.70;66.85
53960;BME280;39866;48.638;-2.020;2022-10-16T02:48:16;100894.28;;;18.77;66.94
53960;BME280;39866;48.638;-2.020;2022-10-16T02:50:41;100892.66;;;18.75;66.75
53960;BME280;39866;48.638;-2.020;2022-10-16T02:53:07;100890.72;;;18.77;66.79
53960;BME280;39866;48.638;-2.020;2022-10-16T02:55:32;100897.09;;;18.76;66.83
53960;BME280;39866;48.638;-2.020;2022-10-16T02:57:58;100894.28;;;18.77;66.64
53960;BME280;39866;48.638;-2.020;2022-10-16T03:00:23;100890.44;;;18.81;66.88
53960;BME280;39866;48.638;-2.020;2022-10-16T03:02:49;100890.53;;;18.80;66.71
53960;BME280;39866;48.638;-2.020;2022-10-16T03:05:15;100884.28;;;18.79;66.38
53960;BME280;39866;48.638;-2.020;2022-10-16T03:07:41;100878.19;;;18.76;66.82
53960;BME280;39866;48.638;-2.020;2022-10-16T03:10:07;100893.25;;;18.80;66.88
53960;BME280;39866;48.638;-2.020;2022-10-16T03:12:32;100886.13;;;18.79;66.90
53960;BME280;39866;48.638;-2.020;2022-10-16T03:14:58;100882.44;;;18.80;66.91
53960;BME280;39866;48.638;-2.020;2022-10-16T03:17:24;100863.59;;;18.64;66.80
53960;BME280;39866;48.638;-2.020;2022-10-16T03:19:50;100891.41;;;18.80;66.98
53960;BME280;39866;48.638;-2.020;2022-10-16T03:22:15;100886.28;;;18.76;66.88
53960;BME280;39866;48.638;-2.020;2022-10-16T03:24:40;100882.34;;;18.81;66.92
53960;BME280;39866;48.638;-2.020;2022-10-16T03:27:06;100878.72;;;18.83;66.91
53960;BME280;39866;48.638;-2.020;2022-10-16T03:29:31;100889.50;;;18.83;66.78
53960;BME280;39866;48.638;-2.020;2022-10-16T03:31:58;100898.53;;;18.81;66.77
53960;BME280;39866;48.638;-2.020;2022-10-16T03:34:23;100895.75;;;18.83;66.94
53960;BME280;39866;48.638;-2.020;2022-10-16T03:36:49;100899.59;;;18.79;67.07
53960;BME280;39866;48.638;-2.020;2022-10-16T03:39:14;100902.38;;;18.77;67.24
53960;BME280;39866;48.638;-2.020;2022-10-16T03:41:40;100892.38;;;18.79;67.10
53960;BME280;39866;48.638;-2.020;2022-10-16T03:44:05;100896.03;;;18.78;67.16
53960;BME280;39866;48.638;-2.020;2022-10-16T03:46:31;100904.72;;;18.84;67.04
53960;BME280;39866;48.638;-2.020;2022-10-16T03:48:56;100902.03;;;18.84;66.95
53960;BME280;39866;48.638;-2.020;2022-10-16T03:51:21;100910.88;;;18.86;66.92
53960;BME280;39866;48.638;-2.020;2022-10-16T03:53:47;100912.63;;;18.87;66.65
53960;BME280;39866;48.638;-2.020;2022-10-16T03:56:12;100912.41;;;18.90;66.61
53960;BME280;39866;48.638;-2.020;2022-10-16T03:58:38;100900.88;;;18.88;66.74
53960;BME280;39866;48.638;-2.020;2022-10-16T04:01:03;100897.50;;;18.84;66.53
53960;BME280;39866;48.638;-2.020;2022-10-16T04:03:28;100908.97;;;18.88;66.45
53960;BME280;39866;48.638;-2.020;2022-10-16T04:05:54;100899.66;;;18.77;66.55
53960;BME280;39866;48.638;-2.020;2022-10-16T04:08:19;100910.09;;;18.84;66.57
53960;BME280;39866;48.638;-2.020;2022-10-16T04:10:45;100916.47;;;18.83;66.74
53960;BME280;39866;48.638;-2.020;2022-10-16T04:13:11;100910.00;;;18.85;66.23
53960;BME280;39866;48.638;-2.020;2022-10-16T04:15:37;100894.09;;;18.80;66.33
53960;BME280;39866;48.638;-2.020;2022-10-16T04:18:03;100912.63;;;18.87;66.37
53960;BME280;39866;48.638;-2.020;2022-10-16T04:20:28;100924.28;;;18.87;66.54
53960;BME280;39866;48.638;-2.020;2022-10-16T04:22:53;100930.38;;;18.91;66.46
53960;BME280;39866;48.638;-2.020;2022-10-16T04:25:19;100916.78;;;18.92;66.34
53960;BME280;39866;48.638;-2.020;2022-10-16T04:27:44;100921.19;;;18.93;66.49
53960;BME280;39866;48.638;-2.020;2022-10-16T04:30:10;100907.13;;;18.88;66.43
53960;BME280;39866;48.638;-2.020;2022-10-16T04:32:35;100916.78;;;18.92;66.33
53960;BME280;39866;48.638;-2.020;2022-10-16T04:35:00;100919.38;;;18.94;66.39
53960;BME280;39866;48.638;-2.020;2022-10-16T04:37:26;100919.38;;;18.94;66.67
53960;BME280;39866;48.638;-2.020;2022-10-16T04:39:52;100922.00;;;18.95;66.47
53960;BME280;39866;48.638;-2.020;2022-10-16T04:42:18;100920.44;;;18.91;66.67
53960;BME280;39866;48.638;-2.020;2022-10-16T04:44:43;100926.00;;;18.88;66.64
53960;BME280;39866;48.638;-2.020;2022-10-16T04:47:08;100921.66;;;18.86;66.79
53960;BME280;39866;48.638;-2.020;2022-10-16T04:49:34;100924.75;;;18.79;66.77
53960;BME280;39866;48.638;-2.020;2022-10-16T04:51:59;100930.69;;;18.70;67.06
53960;BME280;39866;48.638;-2.020;2022-10-16T04:54:25;100929.00;;;18.68;67.01
53960;BME280;39866;48.638;-2.020;2022-10-16T04:56:50;100923.59;;;18.68;66.97
53960;BME280;39866;48.638;-2.020;2022-10-16T04:59:17;100924.66;;;18.65;67.17
53960;BME280;39866;48.638;-2.020;2022-10-16T05:01:43;100928.69;;;18.58;67.01
53960;BME280;39866;48.638;-2.020;2022-10-16T05:04:09;100927.72;;;18.59;67.11
53960;BME280;39866;48.638;-2.020;2022-10-16T05:06:34;100927.91;;;18.56;67.18
53960;BME280;39866;48.638;-2.020;2022-10-16T05:08:59;100939.47;;;18.58;67.28
53960;BME280;39866;48.638;-2.020;2022-10-16T05:11:25;100933.88;;;18.61;67.00
53960;BME280;39866;48.638;-2.020;2022-10-16T05:13:50;100940.94;;;18.64;67.17
53960;BME280;39866;48.638;-2.020;2022-10-16T05:16:15;100942.94;;;18.60;67.14
53960;BME280;39866;48.638;-2.020;2022-10-16T05:18:41;100958.34;;;18.58;67.11
53960;BME280;39866;48.638;-2.020;2022-10-16T05:21:06;100959.50;;;18.54;67.26
53960;BME280;39866;48.638;-2.020;2022-10-16T05:23:32;100948.78;;;18.52;67.26
53960;BME280;39866;48.638;-2.020;2022-10-16T05:25:58;100968.44;;;18.54;67.31
53960;BME280;39866;48.638;-2.020;2022-10-16T05:28:26;100973.72;;;18.56;67.32
53960;BME280;39866;48.638;-2.020;2022-10-16T05:30:52;100964.69;;;18.57;67.41
53960;BME280;39866;48.638;-2.020;2022-10-16T05:33:19;100962.88;;;18.58;67.39
53960;BME280;39866;48.638;-2.020;2022-10-16T05:35:45;100958.53;;;18.55;67.40
53960;BME280;39866;48.638;-2.020;2022-10-16T05:38:10;100948.78;;;18.52;67.42
53960;BME280;39866;48.638;-2.020;2022-10-16T05:40:35;100952.34;;;18.53;67.32
53960;BME280;39866;48.638;-2.020;2022-10-16T05:43:01;100942.78;;;18.47;67.53
53960;BME280;39866;48.638;-2.020;2022-10-16T05:45:26;100951.16;;;18.43;67.39
53960;BME280;39866;48.638;-2.020;2022-10-16T05:47:51;100944.38;;;18.36;67.55
53960;BME280;39866;48.638;-2.020;2022-10-16T05:50:17;100943.22;;;18.40;67.68
53960;BME280;39866;48.638;-2.020;2022-10-16T05:52:42;100945.16;;;18.38;67.47
53960;BME280;39866;48.638;-2.020;2022-10-16T05:55:08;100943.78;;;18.30;67.57
53960;BME280;39866;48.638;-2.020;2022-10-16T05:57:33;100940.97;;;18.32;67.86
53960;BME280;39866;48.638;-2.020;2022-10-16T05:59:58;100943.19;;;18.25;67.85
53960;BME280;39866;48.638;-2.020;2022-10-16T06:02:24;100943.69;;;18.16;68.27
53960;BME280;39866;48.638;-2.020;2022-10-16T06:04:51;100942.91;;;18.14;68.28
53960;BME280;39866;48.638;-2.020;2022-10-16T06:07:18;100941.94;;;18.15;68.51
53960;BME280;39866;48.638;-2.020;2022-10-16T06:09:43;100944.81;;;18.12;68.25
53960;BME280;39866;48.638;-2.020;2022-10-16T06:12:08;100946.31;;;18.18;68.23
53960;BME280;39866;48.638;-2.020;2022-10-16T06:14:34;100941.09;;;18.15;68.16
53960;BME280;39866;48.638;-2.020;2022-10-16T06:16:59;100949.59;;;18.23;68.08
53960;BME280;39866;48.638;-2.020;2022-10-16T06:19:24;100948.13;;;18.17;68.25
53960;BME280;39866;48.638;-2.020;2022-10-16T06:21:50;100949.44;;;18.26;67.93
53960;BME280;39866;48.638;-2.020;2022-10-16T06:24:15;100943.94;;;18.27;68.11
53960;BME280;39866;48.638;-2.020;2022-10-16T06:26:40;100943.59;;;18.34;67.79
53960;BME280;39866;48.638;-2.020;2022-10-16T06:29:06;100939.84;;;18.36;67.86
53960;BME280;39866;48.638;-2.020;2022-10-16T06:31:31;100939.34;;;18.29;67.86
53960;BME280;39866;48.638;-2.020;2022-10-16T06:33:59;100928.91;;;18.23;67.97
53960;BME280;39866;48.638;-2.020;2022-10-16T06:36:25;100933.09;;;18.29;67.92
53960;BME280;39866;48.638;-2.020;2022-10-16T06:38:51;100939.34;;;18.29;68.02
53960;BME280;39866;48.638;-2.020;2022-10-16T06:41:19;100935.69;;;18.30;67.87
53960;BME280;39866;48.638;-2.020;2022-10-16T06:43:45;100935.97;;;18.26;67.85
53960;BME280;39866;48.638;-2.020;2022-10-16T06:46:13;100941.41;;;18.24;68.03
53960;BME280;39866;48.638;-2.020;2022-10-16T06:48:38;100936.13;;;18.23;68.15
53960;BME280;39866;48.638;-2.020;2022-10-16T06:51:13;100947.44;;;18.29;67.91
53960;BME280;39866;48.638;-2.020;2022-10-16T06:53:45;100950.63;;;18.36;67.79
53960;BME280;39866;48.638;-2.020;2022-10-16T06:56:13;100957.78;;;18.37;67.71
53960;BME280;39866;48.638;-2.020;2022-10-16T06:58:39;100952.44;;;18.36;67.73
53960;BME280;39866;48.638;-2.020;2022-10-16T07:01:05;100953.25;;;18.38;67.63
53960;BME280;39866;48.638;-2.020;2022-10-16T07:03:30;100963.34;;;18.34;68.00
53960;BME280;39866;48.638;-2.020;2022-10-16T07:05:56;100958.38;;;18.42;67.99
53960;BME280;39866;48.638;-2.020;2022-10-16T07:08:21;100956.22;;;18.33;68.14
53960;BME280;39866;48.638;-2.020;2022-10-16T07:10:47;100963.81;;;18.41;68.14
53960;BME280;39866;48.638;-2.020;2022-10-16T07:13:12;100980.91;;;18.41;68.00
53960;BME280;39866;48.638;-2.020;2022-10-16T07:15:39;100964.03;;;18.38;68.09
53960;BME280;39866;48.638;-2.020;2022-10-16T07:18:05;100971.84;;;18.42;68.20
53960;BME280;39866;48.638;-2.020;2022-10-16T07:20:30;100974.88;;;18.36;68.53
53960;BME280;39866;48.638;-2.020;2022-10-16T07:22:56;100974.28;;;18.31;68.75
53960;BME280;39866;48.638;-2.020;2022-10-16T07:25:21;100976.81;;;18.34;68.67
53960;BME280;39866;48.638;-2.020;2022-10-16T07:27:46;100974.97;;;18.35;69.16
53960;BME280;39866;48.638;-2.020;2022-10-16T07:30:12;100982.47;;;18.45;68.87
53960;BME280;39866;48.638;-2.020;2022-10-16T07:32:37;100977.41;;;18.39;69.21
53960;BME280;39866;48.638;-2.020;2022-10-16T07:35:03;100990.47;;;18.31;69.18
53960;BME280;39866;48.638;-2.020;2022-10-16T07:37:28;101003.22;;;18.27;69.40
53960;BME280;39866;48.638;-2.020;2022-10-16T07:39:54;100998.09;;;18.39;69.08
53960;BME280;39866;48.638;-2.020;2022-10-16T07:42:19;100995.66;;;18.50;68.99
53960;BME280;39866;48.638;-2.020;2022-10-16T07:44:45;101000.19;;;18.49;69.08
53960;BME280;39866;48.638;-2.020;2022-10-16T07:47:10;100983.94;;;18.51;69.10
53960;BME280;39866;48.638;-2.020;2022-10-16T07:49:36;101002.25;;;18.60;68.69
53960;BME280;39866;48.638;-2.020;2022-10-16T07:52:01;100999.56;;;18.60;68.63
53960;BME280;39866;48.638;-2.020;2022-10-16T07:54:26;101003.06;;;18.62;68.76
53960;BME280;39866;48.638;-2.020;2022-10-16T07:56:52;100999.84;;;18.71;68.53
53960;BME280;39866;48.638;-2.020;2022-10-16T07:59:17;100992.34;;;18.76;68.31
53960;BME280;39866;48.638;-2.020;2022-10-16T08:01:42;101005.38;;;18.68;68.71
53960;BME280;39866;48.638;-2.020;2022-10-16T08:04:09;101009.66;;;18.72;68.69
53960;BME280;39866;48.638;-2.020;2022-10-16T08:06:39;101009.50;;;18.75;68.60
53960;BME280;39866;48.638;-2.020;2022-10-16T08:09:06;101004.00;;;18.77;68.49
53960;BME280;39866;48.638;-2.020;2022-10-16T08:11:32;100999.28;;;18.80;68.34
53960;BME280;39866;48.638;-2.020;2022-10-16T08:13:57;100991.63;;;18.89;68.27
53960;BME280;39866;48.638;-2.020;2022-10-16T08:16:23;100991.06;;;18.98;68.24
53960;BME280;39866;48.638;-2.020;2022-10-16T08:18:48;100988.66;;;18.93;68.26
53960;BME280;39866;48.638;-2.020;2022-10-16T08:21:17;100998.56;;;18.93;68.47
53960;BME280;39866;48.638;-2.020;2022-10-16T08:23:43;100998.25;;;18.83;68.43
53960;BME280;39866;48.638;-2.020;2022-10-16T08:26:10;101008.66;;;18.89;68.77
53960;BME280;39866;48.638;-2.020;2022-10-16T08:28:36;100995.63;;;18.81;68.92
53960;BME280;39866;48.638;-2.020;2022-10-16T08:31:10;101002.59;;;18.86;68.88
53960;BME280;39866;48.638;-2.020;2022-10-16T08:33:36;101001.72;;;18.85;68.90
53960;BME280;39866;48.638;-2.020;2022-10-16T08:36:03;101013.03;;;18.92;68.79
53960;BME280;39866;48.638;-2.020;2022-10-16T08:38:29;101002.06;;;18.95;68.67
53960;BME280;39866;48.638;-2.020;2022-10-16T08:41:19;100999.94;;;19.00;68.57
53960;BME280;39866;48.638;-2.020;2022-10-16T08:44:15;101009.00;;;18.99;68.73
53960;BME280;39866;48.638;-2.020;2022-10-16T08:49:21;101013.53;;;18.98;68.93
53960;BME280;39866;48.638;-2.020;2022-10-16T08:51:46;101005.19;;;19.03;68.63
53960;BME280;39866;48.638;-2.020;2022-10-16T08:54:27;101000.53;;;19.05;68.76
53960;BME280;39866;48.638;-2.020;2022-10-16T08:56:56;100982.50;;;19.05;68.73
53960;BME280;39866;48.638;-2.020;2022-10-16T08:59:21;100993.25;;;19.21;68.31
53960;BME280;39866;48.638;-2.020;2022-10-16T09:01:50;100974.28;;;19.23;68.53
53960;BME280;39866;48.638;-2.020;2022-10-16T09:07:20;100990.66;;;19.20;68.75
53960;BME280;39866;48.638;-2.020;2022-10-16T09:12:31;100999.72;;;19.19;68.91
53960;BME280;39866;48.638;-2.020;2022-10-16T09:15:13;100997.50;;;19.25;68.88
53960;BME280;39866;48.638;-2.020;2022-10-16T09:23:15;100994.06;;;19.38;68.67
53960;BME280;39866;48.638;-2.020;2022-10-16T09:25:43;100983.94;;;19.41;68.64
53960;BME280;39866;48.638;-2.020;2022-10-16T09:28:10;100984.44;;;19.48;68.60
53960;BME280;39866;48.638;-2.020;2022-10-16T09:30:35;100979.03;;;19.48;68.63
53960;BME280;39866;48.638;-2.020;2022-10-16T09:33:01;100976.25;;;19.35;68.96
53960;BME280;39866;48.638;-2.020;2022-10-16T09:35:35;100964.19;;;19.41;68.97
53960;BME280;39866;48.638;-2.020;2022-10-16T09:38:01;100962.91;;;19.46;69.02
53960;BME280;39866;48.638;-2.020;2022-10-16T09:40:32;100959.94;;;19.51;68.75
53960;BME280;39866;48.638;-2.020;2022-10-16T09:44:18;100961.03;;;19.63;68.31
53960;BME280;39866;48.638;-2.020;2022-10-16T09:46:28;100955.63;;;19.77;68.13
53960;BME280;39866;48.638;-2.020;2022-10-16T09:49:02;100950.41;;;19.74;68.05
53960;BME280;39866;48.638;-2.020;2022-10-16T09:53:57;100962.09;;;19.74;68.07
53960;BME280;39866;48.638;-2.020;2022-10-16T09:56:33;100951.47;;;19.86;67.96
53960;BME280;39866;48.638;-2.020;2022-10-16T09:59:08;100953.31;;;19.85;67.85
53960;BME280;39866;48.638;-2.020;2022-10-16T10:01:39;100955.91;;;19.87;67.79
53960;BME280;39866;48.638;-2.020;2022-10-16T10:04:06;100966.53;;;19.90;67.81
53960;BME280;39866;48.638;-2.020;2022-10-16T10:06:52;100966.72;;;19.87;67.98
53960;BME280;39866;48.638;-2.020;2022-10-16T10:09:33;100975.75;;;20.00;67.58
53960;BME280;39866;48.638;-2.020;2022-10-16T10:12:02;100978.84;;;20.08;67.33
53960;BME280;39866;48.638;-2.020;2022-10-16T10:14:44;100979.72;;;20.09;67.16
53960;BME280;39866;48.638;-2.020;2022-10-16T10:17:15;100975.56;;;20.17;67.20
53960;BME280;39866;48.638;-2.020;2022-10-16T10:19:46;100956.84;;;20.14;66.99
53960;BME280;39866;48.638;-2.020;2022-10-16T10:28:30;100956.47;;;20.06;66.48
53960;BME280;39866;48.638;-2.020;2022-10-16T10:36:27;100929.53;;;20.04;66.03
53960;BME280;39866;48.638;-2.020;2022-10-16T10:39:01;100931.28;;;20.06;65.50
53960;BME280;39866;48.638;-2.020;2022-10-16T10:49:09;100915.50;;;20.12;65.34
53960;BME280;39866;48.638;-2.020;2022-10-16T10:52:18;100923.72;;;20.11;65.16
53960;BME280;39866;48.638;-2.020;2022-10-16T11:06:06;100918.41;;;19.68;67.69
53960;BME280;39866;48.638;-2.020;2022-10-16T11:08:45;100913.38;;;19.76;67.34
53960;BME280;39866;48.638;-2.020;2022-10-16T11:16:42;100913.47;;;19.74;67.83
53960;BME280;39866;48.638;-2.020;2022-10-16T11:22:20;100892.81;;;19.73;67.50
53960;BME280;39866;48.638;-2.020;2022-10-16T11:25:07;100913.16;;;19.79;67.53
53960;BME280;39866;48.638;-2.020;2022-10-16T11:30:41;100921.94;;;19.97;67.08
53960;BME280;39866;48.638;-2.020;2022-10-16T11:41:00;100908.25;;;19.86;66.70
53960;BME280;39866;48.638;-2.020;2022-10-16T11:43:32;100895.59;;;19.86;66.55
53960;BME280;39866;48.638;-2.020;2022-10-16T11:46:17;100904.06;;;19.94;66.29
53960;BME280;39866;48.638;-2.020;2022-10-16T11:48:49;100900.63;;;19.92;66.01
53960;BME280;39866;48.638;-2.020;2022-10-16T11:51:38;100894.41;;;20.04;65.56
53960;BME280;39866;48.638;-2.020;2022-10-16T11:56:41;100875.41;;;19.92;65.39
53960;BME280;39866;48.638;-2.020;2022-10-16T12:04:43;100880.25;;;19.87;64.43
53960;BME280;39866;48.638;-2.020;2022-10-16T12:07:21;100875.75;;;19.73;64.67
53960;BME280;39866;48.638;-2.020;2022-10-16T12:09:49;100848.31;;;19.93;64.42
53960;BME280;39866;48.638;-2.020;2022-10-16T12:12:47;100856.22;;;19.96;64.57
53960;BME280;39866;48.638;-2.020;2022-10-16T12:17:44;100873.97;;;20.00;63.94
53960;BME280;39866;48.638;-2.020;2022-10-16T12:22:48;100852.97;;;20.04;63.84
53960;BME280;39866;48.638;-2.020;2022-10-16T12:25:40;100848.31;;;19.79;64.58
53960;BME280;39866;48.638;-2.020;2022-10-16T12:28:25;100843.59;;;19.83;64.85
53960;BME280;39866;48.638;-2.020;2022-10-16T12:31:05;100832.66;;;19.98;64.37
53960;BME280;39866;48.638;-2.020;2022-10-16T12:35:58;100814.72;;;19.42;65.03
53960;BME280;39866;48.638;-2.020;2022-10-16T12:38:35;100816.16;;;19.62;64.56
53960;BME280;39866;48.638;-2.020;2022-10-16T12:41:06;100826.25;;;19.58;63.90
53960;BME280;39866;48.638;-2.020;2022-10-16T12:43:43;100842.31;;;19.61;63.99
53960;BME280;39866;48.638;-2.020;2022-10-16T12:48:35;100868.41;;;19.75;63.00
53960;BME280;39866;48.638;-2.020;2022-10-16T12:54:28;100880.06;;;19.75;62.76
53960;BME280;39866;48.638;-2.020;2022-10-16T13:00:03;100872.81;;;19.90;62.52
53960;BME280;39866;48.638;-2.020;2022-10-16T13:11:10;100843.03;;;19.77;62.96
53960;BME280;39866;48.638;-2.020;2022-10-16T13:16:42;100835.13;;;19.60;64.23
53960;BME280;39866;48.638;-2.020;2022-10-16T13:19:25;100841.91;;;19.53;64.72
53960;BME280;39866;48.638;-2.020;2022-10-16T13:30:19;100819.91;;;19.45;66.74
53960;BME280;39866;48.638;-2.020;2022-10-16T13:32:50;100809.44;;;19.40;67.37
53960;BME280;39866;48.638;-2.020;2022-10-16T13:35:25;100805.38;;;19.33;67.85
53960;BME280;39866;48.638;-2.020;2022-10-16T13:38:08;100802.56;;;19.35;68.36
53960;BME280;39866;48.638;-2.020;2022-10-16T13:40:36;100797.75;;;19.25;69.00
53960;BME280;39866;48.638;-2.020;2022-10-16T13:43:02;100800.66;;;19.22;69.08
53960;BME280;39866;48.638;-2.020;2022-10-16T13:45:27;100786.22;;;19.09;69.94
53960;BME280;39866;48.638;-2.020;2022-10-16T13:48:08;100774.94;;;19.17;69.70
53960;BME280;39866;48.638;-2.020;2022-10-16T13:50:34;100749.13;;;19.13;70.05
53960;BME280;39866;48.638;-2.020;2022-10-16T13:53:06;100758.06;;;19.13;69.73
53960;BME280;39866;48.638;-2.020;2022-10-16T13:55:32;100763.75;;;19.09;70.39
53960;BME280;39866;48.638;-2.020;2022-10-16T13:58:14;100756.34;;;19.12;70.44
53960;BME280;39866;48.638;-2.020;2022-10-16T14:00:51;100742.06;;;19.24;70.41
53960;BME280;39866;48.638;-2.020;2022-10-16T14:03:18;100732.16;;;19.11;70.59
53960;BME280;39866;48.638;-2.020;2022-10-16T14:06:12;100720.22;;;19.15;70.46
53960;BME280;39866;48.638;-2.020;2022-10-16T14:08:43;100726.34;;;19.17;70.91
53960;BME280;39866;48.638;-2.020;2022-10-16T14:11:09;100734.72;;;19.26;70.59
53960;BME280;39866;48.638;-2.020;2022-10-16T14:13:37;100732.44;;;19.20;71.14
53960;BME280;39866;48.638;-2.020;2022-10-16T14:16:09;100728.94;;;19.33;71.21
53960;BME280;39866;48.638;-2.020;2022-10-16T14:18:37;100731.81;;;19.29;71.39
53960;BME280;39866;48.638;-2.020;2022-10-16T14:21:12;100740.47;;;19.35;70.87
53960;BME280;39866;48.638;-2.020;2022-10-16T14:23:40;100734.53;;;19.29;71.37
53960;BME280;39866;48.638;-2.020;2022-10-16T14:28:35;100741.75;;;19.43;71.33
53960;BME280;39866;48.638;-2.020;2022-10-16T14:31:02;100747.88;;;19.45;71.23
53960;BME280;39866;48.638;-2.020;2022-10-16T14:33:45;100747.69;;;19.48;71.39
53960;BME280;39866;48.638;-2.020;2022-10-16T14:36:13;100742.25;;;19.36;71.86
53960;BME280;39866;48.638;-2.020;2022-10-16T14:38:43;100737.13;;;19.58;71.21
53960;BME280;39866;48.638;-2.020;2022-10-16T14:41:13;100744.69;;;19.53;71.72
53960;BME280;39866;48.638;-2.020;2022-10-16T14:43:40;100745.78;;;19.77;70.82
53960;BME280;39866;48.638;-2.020;2022-10-16T14:46:13;100742.47;;;19.87;70.82
53960;BME280;39866;48.638;-2.020;2022-10-16T14:48:47;100744.81;;;19.78;70.82
53960;BME280;39866;48.638;-2.020;2022-10-16T14:51:17;100714.56;;;19.73;70.66
53960;BME280;39866;48.638;-2.020;2022-10-16T14:53:43;100745.94;;;19.89;70.80
53960;BME280;39866;48.638;-2.020;2022-10-16T14:56:17;100752.09;;;19.91;70.57
53960;BME280;39866;48.638;-2.020;2022-10-16T14:58:43;100737.84;;;19.89;70.75
53960;BME280;39866;48.638;-2.020;2022-10-16T15:01:09;100754.41;;;19.97;70.92
53960;BME280;39866;48.638;-2.020;2022-10-16T15:03:36;100752.22;;;19.89;70.82